»·PEaware :: UPS258 KDEN-KMCI

UPS258 :: KDEN-KMCI

FLIGHT INFORMATION

Flight Status: Arrived
Operator:
United Parcel Service
More flights by this operator :: More flights under this callsign
Pilot: Brad M. (22842)
Aircraft: Unknown
(B77F)
More flights by this aircraft type
Origin: KDEN Denver Intl
United States
Destination: KMCI Kansas City Intl
United States
More flights between these airports :: More routes between these airports
Route: +EMMYS6 ZIRKL PWE RBA4
File this flight plan on PilotEdge
Remarks:
Altitude:
(Current/Filed)
33,000ft
Speed:
(Current/Filed)
500kts
Departed: 24-Feb-19 04:05 PM
Arrived: 24-Feb-19 05:11 PM
Distance/Time
Traveled:
461nm/1:05
Distance/Time
To Go:
Arrived

Flight Plot

Page will automatically refresh every two minutes.

Flight plan parsing failed; only flown route is shown


Map Options




Map Legend


Flown Route
Filed Route
Departure Airport
Arrival Airport
Navaid (VOR, NDB)
Fix

Horizontal Profiles

Position Reports

Time Latitude Longitude Heading Altitude Ground
Speed
24-Feb-19 14:53 39.829378 -104.676633 180 5444ft 0kts
24-Feb-19 14:54 39.829378 -104.676633 180 5444ft 0kts
24-Feb-19 14:55 39.829378 -104.676633 180 5444ft 0kts
24-Feb-19 14:56 39.829378 -104.676633 180 5444ft 0kts
24-Feb-19 14:57 39.829378 -104.676633 180 5444ft 0kts
24-Feb-19 14:58 39.829378 -104.676633 180 5444ft 0kts
24-Feb-19 14:59 39.829378 -104.676633 180 5444ft 0kts
24-Feb-19 15:00 39.829378 -104.676633 180 5444ft 0kts
24-Feb-19 15:01 39.829378 -104.676633 180 5444ft 0kts
24-Feb-19 15:02 39.829378 -104.676633 180 5444ft 0kts
24-Feb-19 15:03 39.829378 -104.676633 180 5444ft 0kts
24-Feb-19 15:04 39.829378 -104.676633 180 5444ft 0kts
24-Feb-19 15:05 39.829378 -104.676633 180 5444ft 0kts
24-Feb-19 15:06 39.829378 -104.676633 180 5444ft 0kts
24-Feb-19 15:07 39.829378 -104.676633 180 5444ft 0kts
24-Feb-19 15:08 39.829378 -104.676633 180 5444ft 0kts
24-Feb-19 15:09 39.829378 -104.676633 180 5444ft 0kts
24-Feb-19 15:10 39.829378 -104.676633 180 5444ft 0kts
24-Feb-19 15:11 39.829378 -104.676633 180 5444ft 0kts
24-Feb-19 15:12 39.829378 -104.676633 180 5444ft 0kts
24-Feb-19 15:13 39.829378 -104.676633 180 5444ft 0kts
24-Feb-19 15:14 39.829378 -104.676633 180 5444ft 0kts
24-Feb-19 15:15 39.829378 -104.676633 180 5444ft 0kts
24-Feb-19 15:16 39.829378 -104.676633 180 5444ft 0kts
24-Feb-19 15:17 39.829378 -104.676633 180 5444ft 0kts
24-Feb-19 15:18 39.829378 -104.676633 180 5444ft 0kts
24-Feb-19 15:19 39.829378 -104.676633 180 5444ft 0kts
24-Feb-19 15:20 39.829378 -104.676633 180 5444ft 0kts
24-Feb-19 15:21 39.829378 -104.676633 180 5444ft 0kts
24-Feb-19 15:22 39.829378 -104.676633 180 5444ft 0kts
24-Feb-19 15:23 39.829378 -104.676633 180 5444ft 0kts
24-Feb-19 15:24 39.829378 -104.676633 180 5444ft 0kts
24-Feb-19 15:25 39.829378 -104.676633 180 5444ft 0kts
24-Feb-19 15:26 39.829378 -104.676633 180 5444ft 0kts
24-Feb-19 15:27 39.829378 -104.676633 180 5444ft 0kts
24-Feb-19 15:28 39.829378 -104.676633 180 5444ft 0kts
24-Feb-19 15:30 39.829378 -104.676633 180 5444ft 0kts
24-Feb-19 15:31 39.829378 -104.676633 180 5444ft 0kts
24-Feb-19 15:32 39.829378 -104.676633 180 5444ft 0kts
24-Feb-19 15:33 39.829378 -104.676633 180 5444ft 0kts
24-Feb-19 15:34 39.829378 -104.676633 180 5444ft 0kts
24-Feb-19 15:35 39.829378 -104.676633 180 5444ft 0kts
24-Feb-19 15:36 39.829378 -104.676633 180 5444ft 0kts
24-Feb-19 15:37 39.829378 -104.676633 180 5444ft 0kts
24-Feb-19 15:38 39.829378 -104.676633 180 5444ft 0kts
24-Feb-19 15:39 39.829378 -104.676633 180 5444ft 0kts
24-Feb-19 15:40 39.829378 -104.676633 180 5444ft 0kts
24-Feb-19 15:41 39.829378 -104.676633 180 5444ft 0kts
24-Feb-19 15:42 39.829378 -104.676633 180 5444ft 0kts
24-Feb-19 15:43 39.829469 -104.676631 178 5444ft 2kts
24-Feb-19 15:44 39.830043 -104.676860 129 5444ft 2kts
24-Feb-19 15:45 39.830163 -104.677448 95 5444ft 0kts
24-Feb-19 15:46 39.830163 -104.677448 95 5444ft 0kts
24-Feb-19 15:47 39.830163 -104.677448 95 5444ft 0kts
24-Feb-19 15:48 39.830163 -104.677447 95 5444ft 0kts
24-Feb-19 15:48 39.830163 -104.677447 95 5444ft 0kts
24-Feb-19 15:50 39.830114 -104.675882 91 5444ft 4kts
24-Feb-19 15:51 39.830089 -104.673800 90 5444ft 6kts
24-Feb-19 15:51 39.829612 -104.671955 118 5444ft 6kts
24-Feb-19 15:52 39.829333 -104.668625 90 5444ft 12kts
24-Feb-19 15:53 39.829307 -104.664713 91 5444ft 5kts
24-Feb-19 15:55 39.829498 -104.662833 38 5444ft 9kts
24-Feb-19 15:55 39.831748 -104.662647 0 5444ft 11kts
24-Feb-19 15:56 39.834720 -104.662589 0 5444ft 9kts
24-Feb-19 15:57 39.838739 -104.662554 0 5444ft 14kts
24-Feb-19 15:58 39.843715 -104.662488 0 5444ft 24kts
24-Feb-19 15:59 39.849760 -104.662425 0 5444ft 19kts
24-Feb-19 16:00 39.854731 -104.662348 0 5444ft 16kts
24-Feb-19 16:01 39.858686 -104.662326 0 5444ft 12kts
24-Feb-19 16:02 39.861027 -104.661889 75 5444ft 0kts
24-Feb-19 16:03 39.860758 -104.660179 173 5444ft 6kts
24-Feb-19 16:04 39.842418 -104.660337 179 5448ft 169kts
24-Feb-19 16:05 39.795209 -104.644327 127 7670ft 196kts
24-Feb-19 16:06 39.769924 -104.569473 94 8860ft 272kts
24-Feb-19 16:07 39.792884 -104.468207 72 9995ft 299kts
24-Feb-19 16:08 39.817607 -104.346123 81 10745ft 386kts
24-Feb-19 16:09 39.834970 -104.202620 79 13996ft 415kts
24-Feb-19 16:10 39.854266 -104.050136 78 17094ft 441kts
24-Feb-19 16:11 39.873973 -103.887924 80 19937ft 465kts
24-Feb-19 16:12 39.885295 -103.715605 81 22532ft 489kts
24-Feb-19 16:13 39.905944 -103.536663 79 24924ft 511kts
24-Feb-19 16:14 39.926931 -103.349352 79 27052ft 533kts
24-Feb-19 16:15 39.949062 -103.155073 79 29057ft 553kts
24-Feb-19 16:16 39.971157 -102.954984 80 31287ft 558kts
24-Feb-19 16:17 39.992874 -102.753384 80 33109ft 563kts
24-Feb-19 16:18 40.014301 -102.550796 80 33180ft 569kts
24-Feb-19 16:19 40.036023 -102.342216 81 33199ft 591kts
24-Feb-19 16:20 40.057771 -102.129337 81 33201ft 590kts
24-Feb-19 16:21 40.079088 -101.916767 81 33218ft 590kts
24-Feb-19 16:22 40.100353 -101.704799 81 33234ft 590kts
24-Feb-19 16:23 40.120635 -101.491739 81 33268ft 592kts
24-Feb-19 16:24 40.137405 -101.277428 86 33279ft 595kts
24-Feb-19 16:25 40.142269 -101.060691 87 33314ft 597kts
24-Feb-19 16:26 40.148864 -100.843360 86 33336ft 600kts
24-Feb-19 16:27 40.155920 -100.625208 87 33340ft 602kts
24-Feb-19 16:28 40.162087 -100.406550 87 33344ft 603kts
24-Feb-19 16:29 40.167832 -100.186993 88 33353ft 603kts
24-Feb-19 16:30 40.173140 -99.968172 88 33359ft 603kts
24-Feb-19 16:31 40.178054 -99.748546 88 33377ft 604kts
24-Feb-19 16:32 40.182554 -99.528684 88 33392ft 606kts
24-Feb-19 16:33 40.186659 -99.307921 88 33395ft 608kts
24-Feb-19 16:34 40.190347 -99.086862 88 33400ft 610kts
24-Feb-19 16:35 40.193635 -98.864273 88 33409ft 613kts
24-Feb-19 16:36 40.196503 -98.640991 89 33423ft 615kts
24-Feb-19 16:37 40.198956 -98.416535 89 33429ft 617kts
24-Feb-19 16:38 40.200971 -98.192558 89 33440ft 617kts
24-Feb-19 16:39 40.202558 -97.967971 89 33457ft 618kts
24-Feb-19 16:40 40.203712 -97.743218 90 33475ft 618kts
24-Feb-19 16:41 40.204432 -97.517864 90 33479ft 619kts
24-Feb-19 16:42 40.204716 -97.293350 89 33351ft 607kts
24-Feb-19 16:43 40.204607 -97.075990 89 31261ft 589kts
24-Feb-19 16:44 40.204078 -96.865006 89 29345ft 572kts
24-Feb-19 16:45 40.203263 -96.659609 88 27340ft 556kts
24-Feb-19 16:46 40.202351 -96.460012 88 25431ft 540kts
24-Feb-19 16:47 40.199396 -96.267635 94 23527ft 516kts
24-Feb-19 16:48 40.154093 -96.097195 121 21646ft 484kts
24-Feb-19 16:49 40.086392 -95.949638 123 19823ft 465kts
24-Feb-19 16:50 40.021738 -95.805186 122 18039ft 457kts
24-Feb-19 16:51 39.960297 -95.665649 122 16317ft 432kts
24-Feb-19 16:52 39.900527 -95.533071 122 14280ft 418kts
24-Feb-19 16:53 39.836565 -95.412208 134 12552ft 392kts
24-Feb-19 16:54 39.758316 -95.325765 147 11413ft 337kts
24-Feb-19 16:55 39.689900 -95.254402 145 10723ft 306kts
24-Feb-19 16:56 39.624148 -95.185727 145 10026ft 304kts
24-Feb-19 16:57 39.558850 -95.117867 144 9057ft 298kts
24-Feb-19 16:58 39.494375 -95.050519 143 7927ft 296kts
24-Feb-19 16:59 39.430385 -94.984362 143 6795ft 291kts
24-Feb-19 17:00 39.367249 -94.919265 142 5693ft 289kts
24-Feb-19 17:01 39.307001 -94.857214 142 5072ft 262kts
24-Feb-19 17:02 39.242150 -94.842483 189 4234ft 230kts
24-Feb-19 17:03 39.184650 -94.864405 205 4154ft 214kts
24-Feb-19 17:04 39.128233 -94.862261 131 3935ft 234kts
24-Feb-19 17:05 39.145162 -94.799824 29 3791ft 200kts
24-Feb-19 17:06 39.187958 -94.764056 26 3343ft 167kts
24-Feb-19 17:07 39.226570 -94.748927 7 2373ft 131kts
24-Feb-19 17:08 39.263597 -94.737969 9 1625ft 137kts
24-Feb-19 17:09 39.300413 -94.727251 10 1041ft 119kts
24-Feb-19 17:10 39.311198 -94.722750 120 1039ft 8kts
24-Feb-19 17:11 39.309004 -94.723075 192 1039ft 7kts
24-Feb-19 17:12 39.307238 -94.723061 117 1039ft 6kts
24-Feb-19 17:13 39.306917 -94.721230 103 1039ft 3kts
24-Feb-19 17:14 39.306414 -94.720809 185 1039ft 0kts
24-Feb-19 17:15 39.306316 -94.720824 187 1039ft 0kts

Navigation Log

Ident Type
Flight plan parsing failed, navigation log unavailable